sensor_id;sensor_type;location;lat;lon;timestamp;pressure;altitude;pressure_sealevel;temperature
20733;BMP180;10527;52.124;5.196;2024-03-07T00:00:12;102499.00;;;18.30
20733;BMP180;10527;52.124;5.196;2024-03-07T00:02:46;102491.00;;;18.30
20733;BMP180;10527;52.124;5.196;2024-03-07T00:05:17;102494.00;;;18.30
20733;BMP180;10527;52.124;5.196;2024-03-07T00:07:45;102491.00;;;18.20
20733;BMP180;10527;52.124;5.196;2024-03-07T00:10:14;102488.00;;;18.20
20733;BMP180;10527;52.124;5.196;2024-03-07T00:12:43;102487.00;;;18.20
20733;BMP180;10527;52.124;5.196;2024-03-07T00:15:13;102498.00;;;18.20
20733;BMP180;10527;52.124;5.196;2024-03-07T00:17:41;102498.00;;;18.10
20733;BMP180;10527;52.124;5.196;2024-03-07T00:20:09;102492.00;;;18.10
20733;BMP180;10527;52.124;5.196;2024-03-07T00:22:44;102502.00;;;18.10
20733;BMP180;10527;52.124;5.196;2024-03-07T00:25:12;102495.00;;;18.10
20733;BMP180;10527;52.124;5.196;2024-03-07T00:27:44;102495.00;;;18.00
20733;BMP180;10527;52.124;5.196;2024-03-07T00:30:13;102495.00;;;18.00
20733;BMP180;10527;52.124;5.196;2024-03-07T00:32:42;102501.00;;;18.00
20733;BMP180;10527;52.124;5.196;2024-03-07T00:35:09;102490.00;;;18.00
20733;BMP180;10527;52.124;5.196;2024-03-07T00:37:37;102490.00;;;18.00
20733;BMP180;10527;52.124;5.196;2024-03-07T00:40:05;102495.00;;;18.00
20733;BMP180;10527;52.124;5.196;2024-03-07T00:42:33;102488.00;;;17.90
20733;BMP180;10527;52.124;5.196;2024-03-07T00:45:01;102496.00;;;17.90
20733;BMP180;10527;52.124;5.196;2024-03-07T00:47:30;102497.00;;;17.90
20733;BMP180;10527;52.124;5.196;2024-03-07T00:49:59;102493.00;;;17.90
20733;BMP180;10527;52.124;5.196;2024-03-07T00:52:27;102485.00;;;17.80
20733;BMP180;10527;52.124;5.196;2024-03-07T00:54:55;102488.00;;;17.80
20733;BMP180;10527;52.124;5.196;2024-03-07T00:57:22;102485.00;;;17.80
20733;BMP180;10527;52.124;5.196;2024-03-07T00:59:50;102488.00;;;17.80
20733;BMP180;10527;52.124;5.196;2024-03-07T01:02:18;102488.00;;;17.70
20733;BMP180;10527;52.124;5.196;2024-03-07T01:04:46;102482.00;;;17.70
20733;BMP180;10527;52.124;5.196;2024-03-07T01:07:13;102491.00;;;17.70
20733;BMP180;10527;52.124;5.196;2024-03-07T01:09:40;102487.00;;;17.70
20733;BMP180;10527;52.124;5.196;2024-03-07T01:12:08;102482.00;;;17.60
20733;BMP180;10527;52.124;5.196;2024-03-07T01:14:37;102477.00;;;17.60
20733;BMP180;10527;52.124;5.196;2024-03-07T01:17:05;102482.00;;;17.60
20733;BMP180;10527;52.124;5.196;2024-03-07T01:19:35;102476.00;;;17.60
20733;BMP180;10527;52.124;5.196;2024-03-07T01:22:04;102480.00;;;17.50
20733;BMP180;10527;52.124;5.196;2024-03-07T01:24:32;102485.00;;;17.50
20733;BMP180;10527;52.124;5.196;2024-03-07T01:27:01;102487.00;;;17.50
20733;BMP180;10527;52.124;5.196;2024-03-07T01:29:29;102478.00;;;17.50
20733;BMP180;10527;52.124;5.196;2024-03-07T01:31:57;102476.00;;;17.40
20733;BMP180;10527;52.124;5.196;2024-03-07T01:34:26;102473.00;;;17.40
20733;BMP180;10527;52.124;5.196;2024-03-07T01:36:54;102483.00;;;17.40
20733;BMP180;10527;52.124;5.196;2024-03-07T01:39:22;102481.00;;;17.30
20733;BMP180;10527;52.124;5.196;2024-03-07T01:41:50;102472.00;;;17.30
20733;BMP180;10527;52.124;5.196;2024-03-07T01:44:18;102477.00;;;17.30
20733;BMP180;10527;52.124;5.196;2024-03-07T01:46:46;102475.00;;;17.30
20733;BMP180;10527;52.124;5.196;2024-03-07T01:49:14;102473.00;;;17.20
20733;BMP180;10527;52.124;5.196;2024-03-07T01:51:42;102462.00;;;17.20
20733;BMP180;10527;52.124;5.196;2024-03-07T01:54:11;102466.00;;;17.20
20733;BMP180;10527;52.124;5.196;2024-03-07T01:56:39;102461.00;;;17.20
20733;BMP180;10527;52.124;5.196;2024-03-07T01:59:07;102457.00;;;17.10
20733;BMP180;10527;52.124;5.196;2024-03-07T02:01:35;102462.00;;;17.10
20733;BMP180;10527;52.124;5.196;2024-03-07T02:04:04;102464.00;;;17.10
20733;BMP180;10527;52.124;5.196;2024-03-07T02:06:34;102456.00;;;17.00
20733;BMP180;10527;52.124;5.196;2024-03-07T02:09:03;102455.00;;;17.00
20733;BMP180;10527;52.124;5.196;2024-03-07T02:11:31;102450.00;;;17.00
20733;BMP180;10527;52.124;5.196;2024-03-07T02:13:58;102448.00;;;17.00
20733;BMP180;10527;52.124;5.196;2024-03-07T02:16:26;102448.00;;;17.00
20733;BMP180;10527;52.124;5.196;2024-03-07T02:18:54;102457.00;;;17.00
20733;BMP180;10527;52.124;5.196;2024-03-07T02:21:22;102454.00;;;16.90
20733;BMP180;10527;52.124;5.196;2024-03-07T02:23:50;102439.00;;;16.90
20733;BMP180;10527;52.124;5.196;2024-03-07T02:26:17;102447.00;;;16.90
20733;BMP180;10527;52.124;5.196;2024-03-07T02:28:46;102449.00;;;16.90
20733;BMP180;10527;52.124;5.196;2024-03-07T02:31:13;102452.00;;;16.90
20733;BMP180;10527;52.124;5.196;2024-03-07T02:33:40;102456.00;;;16.80
20733;BMP180;10527;52.124;5.196;2024-03-07T02:36:09;102455.00;;;16.80
20733;BMP180;10527;52.124;5.196;2024-03-07T02:38:36;102453.00;;;16.80
20733;BMP180;10527;52.124;5.196;2024-03-07T02:41:04;102456.00;;;16.80
20733;BMP180;10527;52.124;5.196;2024-03-07T02:43:31;102447.00;;;16.70
20733;BMP180;10527;52.124;5.196;2024-03-07T02:46:00;102453.00;;;16.70
20733;BMP180;10527;52.124;5.196;2024-03-07T02:48:27;102444.00;;;16.70
20733;BMP180;10527;52.124;5.196;2024-03-07T02:50:55;102444.00;;;16.70
20733;BMP180;10527;52.124;5.196;2024-03-07T02:53:22;102450.00;;;16.70
20733;BMP180;10527;52.124;5.196;2024-03-07T02:55:50;102442.00;;;16.70
20733;BMP180;10527;52.124;5.196;2024-03-07T02:58:18;102439.00;;;16.70
20733;BMP180;10527;52.124;5.196;2024-03-07T03:00:45;102436.00;;;16.70
20733;BMP180;10527;52.124;5.196;2024-03-07T03:03:13;102435.00;;;16.70
20733;BMP180;10527;52.124;5.196;2024-03-07T03:05:40;102429.00;;;16.70
20733;BMP180;10527;52.124;5.196;2024-03-07T03:08:07;102425.00;;;16.70
20733;BMP180;10527;52.124;5.196;2024-03-07T03:10:35;102423.00;;;16.70
20733;BMP180;10527;52.124;5.196;2024-03-07T03:13:03;102418.00;;;16.70
20733;BMP180;10527;52.124;5.196;2024-03-07T03:15:30;102421.00;;;16.70
20733;BMP180;10527;52.124;5.196;2024-03-07T03:17:58;102414.00;;;16.70
20733;BMP180;10527;52.124;5.196;2024-03-07T03:20:29;102411.00;;;16.70
20733;BMP180;10527;52.124;5.196;2024-03-07T03:23:06;102418.00;;;16.70
20733;BMP180;10527;52.124;5.196;2024-03-07T03:25:47;102410.00;;;16.70
20733;BMP180;10527;52.124;5.196;2024-03-07T03:28:18;102409.00;;;16.70
20733;BMP180;10527;52.124;5.196;2024-03-07T03:30:48;102412.00;;;16.60
20733;BMP180;10527;52.124;5.196;2024-03-07T03:33:15;102413.00;;;16.60
20733;BMP180;10527;52.124;5.196;2024-03-07T03:35:43;102401.00;;;16.60
20733;BMP180;10527;52.124;5.196;2024-03-07T03:38:12;102403.00;;;16.60
20733;BMP180;10527;52.124;5.196;2024-03-07T03:40:40;102404.00;;;16.60
20733;BMP180;10527;52.124;5.196;2024-03-07T03:43:07;102400.00;;;16.60
20733;BMP180;10527;52.124;5.196;2024-03-07T03:45:35;102397.00;;;16.60
20733;BMP180;10527;52.124;5.196;2024-03-07T03:48:03;102395.00;;;16.60
20733;BMP180;10527;52.124;5.196;2024-03-07T03:50:31;102397.00;;;16.60
20733;BMP180;10527;52.124;5.196;2024-03-07T03:52:59;102382.00;;;16.50
20733;BMP180;10527;52.124;5.196;2024-03-07T03:55:28;102398.00;;;16.50
20733;BMP180;10527;52.124;5.196;2024-03-07T03:57:56;102398.00;;;16.50
20733;BMP180;10527;52.124;5.196;2024-03-07T04:00:23;102391.00;;;16.50
20733;BMP180;10527;52.124;5.196;2024-03-07T04:02:51;102395.00;;;16.50
20733;BMP180;10527;52.124;5.196;2024-03-07T04:05:20;102389.00;;;16.50
20733;BMP180;10527;52.124;5.196;2024-03-07T04:07:49;102393.00;;;16.50
20733;BMP180;10527;52.124;5.196;2024-03-07T04:10:19;102388.00;;;16.50
20733;BMP180;10527;52.124;5.196;2024-03-07T04:12:47;102388.00;;;16.50
20733;BMP180;10527;52.124;5.196;2024-03-07T04:15:15;102386.00;;;16.40
20733;BMP180;10527;52.124;5.196;2024-03-07T04:17:46;102385.00;;;16.40
20733;BMP180;10527;52.124;5.196;2024-03-07T04:20:15;102400.00;;;16.40
20733;BMP180;10527;52.124;5.196;2024-03-07T04:22:46;102400.00;;;16.40
20733;BMP180;10527;52.124;5.196;2024-03-07T04:25:14;102398.00;;;16.30
20733;BMP180;10527;52.124;5.196;2024-03-07T04:27:42;102392.00;;;16.30
20733;BMP180;10527;52.124;5.196;2024-03-07T04:30:10;102387.00;;;16.30
20733;BMP180;10527;52.124;5.196;2024-03-07T04:32:38;102391.00;;;16.20
20733;BMP180;10527;52.124;5.196;2024-03-07T04:35:07;102385.00;;;16.20
20733;BMP180;10527;52.124;5.196;2024-03-07T04:37:36;102397.00;;;16.10
20733;BMP180;10527;52.124;5.196;2024-03-07T04:40:08;102395.00;;;16.10
20733;BMP180;10527;52.124;5.196;2024-03-07T04:42:47;102388.00;;;16.10
20733;BMP180;10527;52.124;5.196;2024-03-07T04:45:18;102391.00;;;16.00
20733;BMP180;10527;52.124;5.196;2024-03-07T04:47:46;102388.00;;;16.00
20733;BMP180;10527;52.124;5.196;2024-03-07T04:50:16;102395.00;;;16.00
20733;BMP180;10527;52.124;5.196;2024-03-07T04:52:47;102388.00;;;16.00
20733;BMP180;10527;52.124;5.196;2024-03-07T04:55:17;102387.00;;;16.00
20733;BMP180;10527;52.124;5.196;2024-03-07T04:57:44;102391.00;;;15.90
20733;BMP180;10527;52.124;5.196;2024-03-07T05:00:13;102395.00;;;15.90
20733;BMP180;10527;52.124;5.196;2024-03-07T05:02:45;102391.00;;;15.90
20733;BMP180;10527;52.124;5.196;2024-03-07T05:05:14;102398.00;;;15.90
20733;BMP180;10527;52.124;5.196;2024-03-07T05:07:42;102388.00;;;15.90
20733;BMP180;10527;52.124;5.196;2024-03-07T05:10:09;102394.00;;;15.90
20733;BMP180;10527;52.124;5.196;2024-03-07T05:12:37;102386.00;;;15.90
20733;BMP180;10527;52.124;5.196;2024-03-07T05:15:08;102386.00;;;15.90
20733;BMP180;10527;52.124;5.196;2024-03-07T05:17:37;102391.00;;;15.80
20733;BMP180;10527;52.124;5.196;2024-03-07T05:20:07;102391.00;;;15.80
20733;BMP180;10527;52.124;5.196;2024-03-07T05:22:39;102386.00;;;15.80
20733;BMP180;10527;52.124;5.196;2024-03-07T05:25:19;102392.00;;;15.80
20733;BMP180;10527;52.124;5.196;2024-03-07T05:27:46;102385.00;;;15.70
20733;BMP180;10527;52.124;5.196;2024-03-07T05:30:14;102391.00;;;15.70
20733;BMP180;10527;52.124;5.196;2024-03-07T05:32:43;102399.00;;;15.70
20733;BMP180;10527;52.124;5.196;2024-03-07T05:35:11;102401.00;;;15.60
20733;BMP180;10527;52.124;5.196;2024-03-07T05:37:39;102395.00;;;15.60
20733;BMP180;10527;52.124;5.196;2024-03-07T05:40:14;102393.00;;;15.60
20733;BMP180;10527;52.124;5.196;2024-03-07T05:42:41;102392.00;;;15.60
20733;BMP180;10527;52.124;5.196;2024-03-07T05:45:09;102389.00;;;15.60
20733;BMP180;10527;52.124;5.196;2024-03-07T05:47:37;102391.00;;;15.60
20733;BMP180;10527;52.124;5.196;2024-03-07T05:50:06;102391.00;;;15.60
20733;BMP180;10527;52.124;5.196;2024-03-07T05:52:38;102385.00;;;15.60
20733;BMP180;10527;52.124;5.196;2024-03-07T05:55:05;102389.00;;;15.50
20733;BMP180;10527;52.124;5.196;2024-03-07T05:57:35;102389.00;;;15.50
20733;BMP180;10527;52.124;5.196;2024-03-07T06:00:06;102391.00;;;15.50
20733;BMP180;10527;52.124;5.196;2024-03-07T06:02:37;102384.00;;;15.50
20733;BMP180;10527;52.124;5.196;2024-03-07T06:05:04;102385.00;;;15.40
20733;BMP180;10527;52.124;5.196;2024-03-07T06:07:32;102388.00;;;15.40
20733;BMP180;10527;52.124;5.196;2024-03-07T06:10:01;102386.00;;;15.40
20733;BMP180;10527;52.124;5.196;2024-03-07T06:12:29;102389.00;;;15.40
20733;BMP180;10527;52.124;5.196;2024-03-07T06:14:57;102398.00;;;15.40
20733;BMP180;10527;52.124;5.196;2024-03-07T06:17:25;102392.00;;;15.30
20733;BMP180;10527;52.124;5.196;2024-03-07T06:19:53;102400.00;;;15.30
20733;BMP180;10527;52.124;5.196;2024-03-07T06:22:21;102400.00;;;15.30
20733;BMP180;10527;52.124;5.196;2024-03-07T06:24:49;102399.00;;;15.30
20733;BMP180;10527;52.124;5.196;2024-03-07T06:27:17;102402.00;;;15.30
20733;BMP180;10527;52.124;5.196;2024-03-07T06:29:55;102394.00;;;15.30
20733;BMP180;10527;52.124;5.196;2024-03-07T06:32:23;102403.00;;;15.30
20733;BMP180;10527;52.124;5.196;2024-03-07T06:34:51;102405.00;;;15.30
20733;BMP180;10527;52.124;5.196;2024-03-07T06:37:20;102400.00;;;15.20
20733;BMP180;10527;52.124;5.196;2024-03-07T06:39:47;102392.00;;;15.20
20733;BMP180;10527;52.124;5.196;2024-03-07T06:42:15;102406.00;;;15.20
20733;BMP180;10527;52.124;5.196;2024-03-07T06:44:43;102407.00;;;15.20
20733;BMP180;10527;52.124;5.196;2024-03-07T06:47:11;102401.00;;;15.20
20733;BMP180;10527;52.124;5.196;2024-03-07T06:49:39;102389.00;;;15.20
20733;BMP180;10527;52.124;5.196;2024-03-07T06:52:07;102393.00;;;15.20
20733;BMP180;10527;52.124;5.196;2024-03-07T06:54:35;102394.00;;;15.20
20733;BMP180;10527;52.124;5.196;2024-03-07T06:57:03;102393.00;;;15.20
20733;BMP180;10527;52.124;5.196;2024-03-07T06:59:31;102392.00;;;15.20
20733;BMP180;10527;52.124;5.196;2024-03-07T07:01:58;102402.00;;;15.20
20733;BMP180;10527;52.124;5.196;2024-03-07T07:04:26;102389.00;;;15.20
20733;BMP180;10527;52.124;5.196;2024-03-07T07:06:59;102395.00;;;15.20
20733;BMP180;10527;52.124;5.196;2024-03-07T07:09:28;102397.00;;;15.20
20733;BMP180;10527;52.124;5.196;2024-03-07T07:11:55;102392.00;;;15.20
20733;BMP180;10527;52.124;5.196;2024-03-07T07:14:23;102398.00;;;15.20
20733;BMP180;10527;52.124;5.196;2024-03-07T07:16:51;102381.00;;;15.20
20733;BMP180;10527;52.124;5.196;2024-03-07T07:19:20;102388.00;;;15.30
20733;BMP180;10527;52.124;5.196;2024-03-07T07:21:47;102387.00;;;15.30
20733;BMP180;10527;52.124;5.196;2024-03-07T07:24:20;102392.00;;;15.30
20733;BMP180;10527;52.124;5.196;2024-03-07T07:26:51;102395.00;;;15.30
20733;BMP180;10527;52.124;5.196;2024-03-07T07:29:19;102390.00;;;15.30
20733;BMP180;10527;52.124;5.196;2024-03-07T07:31:47;102373.00;;;15.40
20733;BMP180;10527;52.124;5.196;2024-03-07T07:34:14;102385.00;;;15.40
20733;BMP180;10527;52.124;5.196;2024-03-07T07:36:42;102384.00;;;15.40
20733;BMP180;10527;52.124;5.196;2024-03-07T07:39:09;102383.00;;;15.30
20733;BMP180;10527;52.124;5.196;2024-03-07T07:41:44;102382.00;;;15.30
20733;BMP180;10527;52.124;5.196;2024-03-07T07:44:11;102375.00;;;15.30
20733;BMP180;10527;52.124;5.196;2024-03-07T07:46:39;102382.00;;;15.30
20733;BMP180;10527;52.124;5.196;2024-03-07T07:49:07;102375.00;;;15.40
20733;BMP180;10527;52.124;5.196;2024-03-07T07:51:36;102372.00;;;15.40
20733;BMP180;10527;52.124;5.196;2024-03-07T07:54:03;102375.00;;;15.40
20733;BMP180;10527;52.124;5.196;2024-03-07T07:56:31;102375.00;;;15.40
20733;BMP180;10527;52.124;5.196;2024-03-07T07:58:58;102382.00;;;15.40
20733;BMP180;10527;52.124;5.196;2024-03-07T08:01:26;102386.00;;;15.40
20733;BMP180;10527;52.124;5.196;2024-03-07T08:03:54;102377.00;;;15.50
20733;BMP180;10527;52.124;5.196;2024-03-07T08:06:23;102376.00;;;15.50
20733;BMP180;10527;52.124;5.196;2024-03-07T08:08:51;102376.00;;;15.50
20733;BMP180;10527;52.124;5.196;2024-03-07T08:11:20;102360.00;;;15.50
20733;BMP180;10527;52.124;5.196;2024-03-07T08:13:47;102365.00;;;15.60
20733;BMP180;10527;52.124;5.196;2024-03-07T08:16:20;102362.00;;;15.60
20733;BMP180;10527;52.124;5.196;2024-03-07T08:18:50;102370.00;;;15.60
20733;BMP180;10527;52.124;5.196;2024-03-07T08:21:18;102366.00;;;15.70
20733;BMP180;10527;52.124;5.196;2024-03-07T08:23:45;102369.00;;;15.70
20733;BMP180;10527;52.124;5.196;2024-03-07T08:26:13;102363.00;;;15.70
20733;BMP180;10527;52.124;5.196;2024-03-07T08:28:43;102364.00;;;15.80
20733;BMP180;10527;52.124;5.196;2024-03-07T08:31:10;102360.00;;;15.80
20733;BMP180;10527;52.124;5.196;2024-03-07T08:33:38;102366.00;;;15.80
20733;BMP180;10527;52.124;5.196;2024-03-07T08:36:05;102361.00;;;15.80
20733;BMP180;10527;52.124;5.196;2024-03-07T08:38:35;102356.00;;;15.80
20733;BMP180;10527;52.124;5.196;2024-03-07T08:41:04;102358.00;;;15.90
20733;BMP180;10527;52.124;5.196;2024-03-07T08:43:31;102369.00;;;15.90
20733;BMP180;10527;52.124;5.196;2024-03-07T08:45:59;102363.00;;;15.90
20733;BMP180;10527;52.124;5.196;2024-03-07T08:48:26;102375.00;;;15.90
20733;BMP180;10527;52.124;5.196;2024-03-07T08:50:54;102367.00;;;16.00
20733;BMP180;10527;52.124;5.196;2024-03-07T08:53:22;102369.00;;;16.10
20733;BMP180;10527;52.124;5.196;2024-03-07T08:55:49;102364.00;;;16.30
20733;BMP180;10527;52.124;5.196;2024-03-07T08:58:17;102370.00;;;16.60
20733;BMP180;10527;52.124;5.196;2024-03-07T09:00:45;102361.00;;;16.90
20733;BMP180;10527;52.124;5.196;2024-03-07T09:03:13;102367.00;;;17.30
20733;BMP180;10527;52.124;5.196;2024-03-07T09:05:41;102359.00;;;17.80
20733;BMP180;10527;52.124;5.196;2024-03-07T09:08:09;102361.00;;;18.20
20733;BMP180;10527;52.124;5.196;2024-03-07T09:10:37;102353.00;;;18.70
20733;BMP180;10527;52.124;5.196;2024-03-07T09:13:08;102362.00;;;19.10
20733;BMP180;10527;52.124;5.196;2024-03-07T09:15:36;102364.00;;;19.50
20733;BMP180;10527;52.124;5.196;2024-03-07T09:18:04;102357.00;;;19.80
20733;BMP180;10527;52.124;5.196;2024-03-07T09:20:33;102364.00;;;20.10
20733;BMP180;10527;52.124;5.196;2024-03-07T09:23:01;102354.00;;;20.40
20733;BMP180;10527;52.124;5.196;2024-03-07T09:25:28;102345.00;;;20.60
20733;BMP180;10527;52.124;5.196;2024-03-07T09:28:00;102341.00;;;20.80
20733;BMP180;10527;52.124;5.196;2024-03-07T09:30:27;102334.00;;;21.00
20733;BMP180;10527;52.124;5.196;2024-03-07T09:32:55;102342.00;;;21.20
20733;BMP180;10527;52.124;5.196;2024-03-07T09:35:23;102341.00;;;21.40
20733;BMP180;10527;52.124;5.196;2024-03-07T09:37:51;102335.00;;;21.60
20733;BMP180;10527;52.124;5.196;2024-03-07T09:40:19;102332.00;;;21.80
20733;BMP180;10527;52.124;5.196;2024-03-07T09:42:49;102334.00;;;21.90
20733;BMP180;10527;52.124;5.196;2024-03-07T09:45:20;102337.00;;;22.00
20733;BMP180;10527;52.124;5.196;2024-03-07T09:47:49;102326.00;;;22.10
20733;BMP180;10527;52.124;5.196;2024-03-07T09:50:21;102334.00;;;22.20
20733;BMP180;10527;52.124;5.196;2024-03-07T09:52:52;102326.00;;;22.30
20733;BMP180;10527;52.124;5.196;2024-03-07T09:55:22;102328.00;;;22.30
20733;BMP180;10527;52.124;5.196;2024-03-07T09:57:54;102322.00;;;22.40
20733;BMP180;10527;52.124;5.196;2024-03-07T10:00:25;102321.00;;;22.40
20733;BMP180;10527;52.124;5.196;2024-03-07T10:03:05;102328.00;;;22.50
20733;BMP180;10527;52.124;5.196;2024-03-07T10:05:34;102324.00;;;22.50
20733;BMP180;10527;52.124;5.196;2024-03-07T10:08:02;102329.00;;;22.60
20733;BMP180;10527;52.124;5.196;2024-03-07T10:10:29;102313.00;;;22.60
20733;BMP180;10527;52.124;5.196;2024-03-07T10:12:58;102321.00;;;22.60
20733;BMP180;10527;52.124;5.196;2024-03-07T10:15:30;102320.00;;;22.50
20733;BMP180;10527;52.124;5.196;2024-03-07T10:17:59;102313.00;;;22.40
20733;BMP180;10527;52.124;5.196;2024-03-07T10:20:29;102319.00;;;22.30
20733;BMP180;10527;52.124;5.196;2024-03-07T10:22:57;102313.00;;;22.20
20733;BMP180;10527;52.124;5.196;2024-03-07T10:25:25;102313.00;;;22.10
20733;BMP180;10527;52.124;5.196;2024-03-07T10:27:56;102306.00;;;22.00
20733;BMP180;10527;52.124;5.196;2024-03-07T10:30:26;102308.00;;;21.90
20733;BMP180;10527;52.124;5.196;2024-03-07T10:32:59;102303.00;;;21.80
20733;BMP180;10527;52.124;5.196;2024-03-07T10:35:29;102294.00;;;21.80
20733;BMP180;10527;52.124;5.196;2024-03-07T10:37:59;102295.00;;;21.70
20733;BMP180;10527;52.124;5.196;2024-03-07T10:40:35;102292.00;;;21.70
20733;BMP180;10527;52.124;5.196;2024-03-07T10:43:09;102293.00;;;21.60
20733;BMP180;10527;52.124;5.196;2024-03-07T10:45:48;102286.00;;;21.60
20733;BMP180;10527;52.124;5.196;2024-03-07T10:48:20;102290.00;;;21.50
20733;BMP180;10527;52.124;5.196;2024-03-07T10:51:06;102292.00;;;21.40
20733;BMP180;10527;52.124;5.196;2024-03-07T10:53:46;102291.00;;;21.30
20733;BMP180;10527;52.124;5.196;2024-03-07T11:04:24;102270.00;;;21.00
20733;BMP180;10527;52.124;5.196;2024-03-07T11:06:53;102278.00;;;21.00
20733;BMP180;10527;52.124;5.196;2024-03-07T11:09:21;102276.00;;;20.90
20733;BMP180;10527;52.124;5.196;2024-03-07T11:11:57;102269.00;;;20.80
20733;BMP180;10527;52.124;5.196;2024-03-07T11:14:27;102266.00;;;20.80
20733;BMP180;10527;52.124;5.196;2024-03-07T11:16:59;102263.00;;;20.70
20733;BMP180;10527;52.124;5.196;2024-03-07T11:19:27;102264.00;;;20.70
20733;BMP180;10527;52.124;5.196;2024-03-07T11:21:56;102262.00;;;20.70
20733;BMP180;10527;52.124;5.196;2024-03-07T11:24:25;102254.00;;;20.70
20733;BMP180;10527;52.124;5.196;2024-03-07T11:26:57;102254.00;;;20.70
20733;BMP180;10527;52.124;5.196;2024-03-07T11:29:47;102252.00;;;20.70
20733;BMP180;10527;52.124;5.196;2024-03-07T11:32:15;102247.00;;;20.60
20733;BMP180;10527;52.124;5.196;2024-03-07T11:34:45;102243.00;;;20.60
20733;BMP180;10527;52.124;5.196;2024-03-07T11:37:20;102249.00;;;20.60
20733;BMP180;10527;52.124;5.196;2024-03-07T11:39:51;102248.00;;;20.60
20733;BMP180;10527;52.124;5.196;2024-03-07T11:42:28;102245.00;;;20.70
20733;BMP180;10527;52.124;5.196;2024-03-07T11:45:00;102242.00;;;20.70
20733;BMP180;10527;52.124;5.196;2024-03-07T11:47:38;102246.00;;;20.80
20733;BMP180;10527;52.124;5.196;2024-03-07T11:50:07;102240.00;;;20.80
20733;BMP180;10527;52.124;5.196;2024-03-07T11:52:41;102227.00;;;20.90
20733;BMP180;10527;52.124;5.196;2024-03-07T11:55:13;102221.00;;;20.90
20733;BMP180;10527;52.124;5.196;2024-03-07T11:57:41;102229.00;;;21.00
20733;BMP180;10527;52.124;5.196;2024-03-07T12:00:13;102230.00;;;21.00
20733;BMP180;10527;52.124;5.196;2024-03-07T12:02:42;102216.00;;;21.00
20733;BMP180;10527;52.124;5.196;2024-03-07T12:05:13;102220.00;;;21.10
20733;BMP180;10527;52.124;5.196;2024-03-07T12:07:44;102225.00;;;21.00
20733;BMP180;10527;52.124;5.196;2024-03-07T12:10:11;102205.00;;;21.00
20733;BMP180;10527;52.124;5.196;2024-03-07T12:12:39;102196.00;;;21.00
20733;BMP180;10527;52.124;5.196;2024-03-07T12:15:07;102206.00;;;21.00
20733;BMP180;10527;52.124;5.196;2024-03-07T12:17:47;102197.00;;;21.00
20733;BMP180;10527;52.124;5.196;2024-03-07T12:20:17;102195.00;;;21.00
20733;BMP180;10527;52.124;5.196;2024-03-07T12:23:01;102180.00;;;21.00
20733;BMP180;10527;52.124;5.196;2024-03-07T12:25:30;102180.00;;;21.00
20733;BMP180;10527;52.124;5.196;2024-03-07T12:30:53;102176.00;;;21.10
20733;BMP180;10527;52.124;5.196;2024-03-07T12:33:22;102162.00;;;21.10
20733;BMP180;10527;52.124;5.196;2024-03-07T12:35:54;102153.00;;;21.10
20733;BMP180;10527;52.124;5.196;2024-03-07T12:38:29;102148.00;;;21.20
20733;BMP180;10527;52.124;5.196;2024-03-07T12:41:10;102154.00;;;21.20
20733;BMP180;10527;52.124;5.196;2024-03-07T12:43:43;102144.00;;;21.20
20733;BMP180;10527;52.124;5.196;2024-03-07T12:46:14;102146.00;;;21.20
20733;BMP180;10527;52.124;5.196;2024-03-07T12:48:43;102136.00;;;21.30
20733;BMP180;10527;52.124;5.196;2024-03-07T12:51:15;102138.00;;;21.30
20733;BMP180;10527;52.124;5.196;2024-03-07T12:53:47;102138.00;;;21.30
20733;BMP180;10527;52.124;5.196;2024-03-07T12:56:16;102134.00;;;21.40
20733;BMP180;10527;52.124;5.196;2024-03-07T12:58:47;102138.00;;;21.50
20733;BMP180;10527;52.124;5.196;2024-03-07T13:01:15;102135.00;;;21.50
20733;BMP180;10527;52.124;5.196;2024-03-07T13:03:46;102132.00;;;21.60
20733;BMP180;10527;52.124;5.196;2024-03-07T13:06:15;102116.00;;;21.60
20733;BMP180;10527;52.124;5.196;2024-03-07T13:08:43;102132.00;;;21.60
20733;BMP180;10527;52.124;5.196;2024-03-07T13:11:11;102127.00;;;21.60
20733;BMP180;10527;52.124;5.196;2024-03-07T13:13:39;102117.00;;;21.60
20733;BMP180;10527;52.124;5.196;2024-03-07T13:16:07;102115.00;;;21.60
20733;BMP180;10527;52.124;5.196;2024-03-07T13:18:36;102114.00;;;21.60
20733;BMP180;10527;52.124;5.196;2024-03-07T13:21:05;102116.00;;;21.70
20733;BMP180;10527;52.124;5.196;2024-03-07T13:23:34;102126.00;;;21.80
20733;BMP180;10527;52.124;5.196;2024-03-07T13:26:03;102106.00;;;21.80
20733;BMP180;10527;52.124;5.196;2024-03-07T13:28:36;102104.00;;;21.90
20733;BMP180;10527;52.124;5.196;2024-03-07T13:31:04;102103.00;;;21.90
20733;BMP180;10527;52.124;5.196;2024-03-07T13:33:31;102104.00;;;22.00
20733;BMP180;10527;52.124;5.196;2024-03-07T13:36:00;102094.00;;;22.00
20733;BMP180;10527;52.124;5.196;2024-03-07T13:38:28;102096.00;;;22.00
20733;BMP180;10527;52.124;5.196;2024-03-07T13:40:57;102080.00;;;22.10
20733;BMP180;10527;52.124;5.196;2024-03-07T13:43:24;102086.00;;;22.10
20733;BMP180;10527;52.124;5.196;2024-03-07T13:45:52;102089.00;;;22.10
20733;BMP180;10527;52.124;5.196;2024-03-07T13:48:20;102087.00;;;22.10
20733;BMP180;10527;52.124;5.196;2024-03-07T13:50:49;102080.00;;;22.20
20733;BMP180;10527;52.124;5.196;2024-03-07T13:53:27;102084.00;;;22.20
20733;BMP180;10527;52.124;5.196;2024-03-07T14:16:01;102057.00;;;22.10
20733;BMP180;10527;52.124;5.196;2024-03-07T14:25:03;102058.00;;;22.20
20733;BMP180;10527;52.124;5.196;2024-03-07T14:27:53;102054.00;;;22.10
20733;BMP180;10527;52.124;5.196;2024-03-07T14:30:55;102056.00;;;22.10
20733;BMP180;10527;52.124;5.196;2024-03-07T14:33:35;102054.00;;;22.10
20733;BMP180;10527;52.124;5.196;2024-03-07T14:36:15;102060.00;;;22.00
20733;BMP180;10527;52.124;5.196;2024-03-07T14:38:52;102054.00;;;22.00
20733;BMP180;10527;52.124;5.196;2024-03-07T14:44:12;102048.00;;;22.00
20733;BMP180;10527;52.124;5.196;2024-03-07T14:46:40;102046.00;;;22.00
20733;BMP180;10527;52.124;5.196;2024-03-07T14:49:10;102039.00;;;21.90